Main page
METAR-TAF:

METAR-TAF

Airports :

Aurillac – Tronquières Airport

Aurillac, France

latitude: 44-53N, longitude: 002-25E, elevation: 639 m

Current weather observation

The report was made 27 minutes ago, at 21:30 UTC
Wind 5 kt from the East
Temperature -1°C
Humidity 100%
Pressure 1021 hPa
Visibility: 6000 m

METAR: LFLW 102130Z AUTO 10005KT 6000 ////// M01/M01 Q1021

Time: 22:57 (21:57 UTC)

Forecast

The report was made 7 hours and 57 minutes ago, at 14:00 UTC
Forecast valid from 10 at 15 UTC to 10 at 24 UTC
Wind 3 kt from variable directions
Visibility 10 km or more
no clouds below 1500 m and no cumulonimbus

TAF: LFLW 101400Z 1015/1024 VRB03KT CAVOK

Weather observations and forecasts of more than 4000 airports (METAR and TAF reports).

The available stations are represented by yellow and red dots on the map.

Hover mouse over dot to see the name of the station.

Then click to see weather observations and forecasts.

To change the map : click on the green buttons with a black cross to zoom in, on the green button with a dash to zoom out, or on the green arrows for adjacent maps.


METAR-TAF: